createdAt,value
2018-10-03T00:00:26.817Z,1006.16
2018-10-03T00:01:26.795Z,1006.15
2018-10-03T00:02:26.777Z,1006.19
2018-10-03T00:03:26.759Z,1006.08
2018-10-03T00:04:26.737Z,1006.13
2018-10-03T00:05:26.720Z,1006.11
2018-10-03T00:06:26.700Z,1006.10
2018-10-03T00:07:26.671Z,1006.18
2018-10-03T00:08:26.654Z,1006.18
2018-10-03T00:09:26.633Z,1006.13
2018-10-03T00:10:26.619Z,1006.20
2018-10-03T00:11:26.595Z,1006.18
2018-10-03T00:12:26.573Z,1006.17
2018-10-03T00:13:26.554Z,1006.14
2018-10-03T00:14:26.534Z,1006.18
2018-10-03T00:15:26.510Z,1006.11
2018-10-03T00:16:26.489Z,1006.18
2018-10-03T00:17:26.473Z,1006.15
2018-10-03T00:18:26.457Z,1006.16
2018-10-03T00:19:26.435Z,1006.12
2018-10-03T00:20:26.413Z,1006.16
2018-10-03T00:21:26.390Z,1006.18
2018-10-03T00:22:26.370Z,1006.15
2018-10-03T00:23:26.486Z,1006.16
2018-10-03T00:24:26.333Z,1006.13
2018-10-03T00:25:26.307Z,1006.20
2018-10-03T00:26:26.287Z,1006.22
2018-10-03T00:27:26.269Z,1006.23
2018-10-03T00:28:26.251Z,1006.13
2018-10-03T00:29:26.229Z,1006.23
2018-10-03T00:30:26.205Z,1006.27
2018-10-03T00:31:26.196Z,1006.25
2018-10-03T00:32:26.165Z,1006.27
2018-10-03T00:33:26.149Z,1006.19
2018-10-03T00:34:26.129Z,1006.22
2018-10-03T00:35:26.107Z,1006.29
2018-10-03T00:36:26.094Z,1006.31
2018-10-03T00:37:26.075Z,1006.30
2018-10-03T00:38:26.055Z,1006.24
2018-10-03T00:39:26.027Z,1006.15
2018-10-03T00:40:26.006Z,1006.21
2018-10-03T00:41:25.990Z,1006.24
2018-10-03T00:42:25.966Z,1006.32
2018-10-03T00:43:25.947Z,1006.23
2018-10-03T00:44:25.927Z,1006.23
2018-10-03T00:45:25.904Z,1006.25
2018-10-03T00:46:25.887Z,1006.33
2018-10-03T00:47:25.863Z,1006.27
2018-10-03T00:48:25.846Z,1006.31
2018-10-03T00:49:25.825Z,1006.33
2018-10-03T00:50:25.804Z,1006.39
2018-10-03T00:51:25.783Z,1006.30
2018-10-03T00:52:25.761Z,1006.25
2018-10-03T00:53:25.741Z,1006.34
2018-10-03T00:54:25.721Z,1006.25
2018-10-03T00:55:25.700Z,1006.27
2018-10-03T00:56:25.680Z,1006.26
2018-10-03T00:57:25.674Z,1006.38
2018-10-03T00:58:25.641Z,1006.25
2018-10-03T00:59:25.627Z,1006.29
2018-10-03T01:00:25.623Z,1006.29
2018-10-03T01:01:25.583Z,1006.30
2018-10-03T01:02:25.561Z,1006.34
2018-10-03T01:03:25.545Z,1006.33
2018-10-03T01:04:25.525Z,1006.31
2018-10-03T01:05:25.499Z,1006.30
2018-10-03T01:06:25.485Z,1006.24
2018-10-03T01:07:25.457Z,1006.31
2018-10-03T01:08:25.443Z,1006.29
2018-10-03T01:09:25.417Z,1006.33
2018-10-03T01:10:25.400Z,1006.27
2018-10-03T01:11:25.373Z,1006.34
2018-10-03T01:12:25.357Z,1006.31
2018-10-03T01:13:25.335Z,1006.34
2018-10-03T01:14:25.319Z,1006.34
2018-10-03T01:15:25.300Z,1006.37
2018-10-03T01:16:25.279Z,1006.32
2018-10-03T01:17:25.254Z,1006.36
2018-10-03T01:18:25.238Z,1006.37
2018-10-03T01:19:25.218Z,1006.38
2018-10-03T01:20:25.195Z,1006.33
2018-10-03T01:21:25.172Z,1006.26
2018-10-03T01:22:25.152Z,1006.41
2018-10-03T01:23:25.134Z,1006.37
2018-10-03T01:24:25.119Z,1006.40
2018-10-03T01:25:25.092Z,1006.36
2018-10-03T01:26:25.070Z,1006.27
2018-10-03T01:27:25.055Z,1006.30
2018-10-03T01:28:25.037Z,1006.33
2018-10-03T01:29:25.018Z,1006.31
2018-10-03T01:30:24.992Z,1006.29
2018-10-03T01:31:24.971Z,1006.33
2018-10-03T01:32:24.950Z,1006.21
2018-10-03T01:33:24.925Z,1006.20
2018-10-03T01:34:24.909Z,1006.21
2018-10-03T01:35:24.890Z,1006.14
2018-10-03T01:36:24.865Z,1006.17
2018-10-03T01:37:24.850Z,1006.19
2018-10-03T01:38:24.882Z,1006.13
2018-10-03T01:39:24.808Z,1006.18
2018-10-03T01:40:24.791Z,1006.19
2018-10-03T01:41:24.768Z,1006.24
2018-10-03T01:42:24.745Z,1006.25
2018-10-03T01:43:24.728Z,1006.21
2018-10-03T01:44:24.704Z,1006.33
2018-10-03T01:45:24.687Z,1006.34
2018-10-03T01:46:24.664Z,1006.34
2018-10-03T01:47:24.646Z,1006.50
2018-10-03T01:48:24.626Z,1006.47
2018-10-03T01:49:24.602Z,1006.53
2018-10-03T01:50:24.584Z,1006.60
2018-10-03T01:51:24.561Z,1006.49
2018-10-03T01:52:24.540Z,1006.49
2018-10-03T01:53:24.523Z,1006.62
2018-10-03T01:54:24.501Z,1006.52
2018-10-03T01:55:24.478Z,1006.65
2018-10-03T01:56:24.461Z,1006.57
2018-10-03T01:57:24.446Z,1006.66
2018-10-03T01:58:24.416Z,1006.74
2018-10-03T01:59:24.398Z,1006.65
2018-10-03T02:00:24.378Z,1006.62
2018-10-03T02:01:24.354Z,1006.53
2018-10-03T02:02:24.336Z,1006.77
2018-10-03T02:03:24.316Z,1006.63
2018-10-03T02:04:24.295Z,1006.65
2018-10-03T02:05:24.276Z,1006.62
2018-10-03T02:06:24.258Z,1006.57
2018-10-03T02:07:24.239Z,1006.61
2018-10-03T02:08:24.216Z,1006.58
2018-10-03T02:09:24.192Z,1006.50
2018-10-03T02:10:24.175Z,1006.54
2018-10-03T02:11:24.151Z,1006.56
2018-10-03T02:12:24.130Z,1006.59
2018-10-03T02:13:24.115Z,1006.62
2018-10-03T02:14:24.093Z,1006.62
2018-10-03T02:15:24.068Z,1006.59
2018-10-03T02:16:24.051Z,1006.60
2018-10-03T02:17:24.029Z,1006.70
2018-10-03T02:18:24.010Z,1006.61
2018-10-03T02:19:23.987Z,1006.69
2018-10-03T02:20:23.972Z,1006.71
2018-10-03T02:21:23.947Z,1006.66
2018-10-03T02:22:23.932Z,1006.62
2018-10-03T02:23:23.906Z,1006.68
2018-10-03T02:24:23.886Z,1006.59
2018-10-03T02:25:23.867Z,1006.59
2018-10-03T02:26:23.844Z,1006.63
2018-10-03T02:27:23.826Z,1006.53
2018-10-03T02:28:23.805Z,1006.58
2018-10-03T02:29:23.780Z,1006.62
2018-10-03T02:30:23.763Z,1006.66
2018-10-03T02:31:23.740Z,1006.65
2018-10-03T02:32:23.723Z,1006.71
2018-10-03T02:33:23.702Z,1006.68
2018-10-03T02:34:23.680Z,1006.71
2018-10-03T02:35:23.662Z,1006.63
2018-10-03T02:36:23.640Z,1006.64
2018-10-03T02:37:23.627Z,1006.59
2018-10-03T02:38:23.596Z,1006.59
2018-10-03T02:39:23.577Z,1006.57
2018-10-03T02:40:23.558Z,1006.57
2018-10-03T02:41:23.533Z,1006.55
2018-10-03T02:42:23.521Z,1006.60
2018-10-03T02:43:23.492Z,1006.47
2018-10-03T02:44:23.475Z,1006.56
2018-10-03T02:45:23.454Z,1006.60
2018-10-03T02:46:23.431Z,1006.60
2018-10-03T02:47:23.416Z,1006.62
2018-10-03T02:48:23.394Z,1006.73
2018-10-03T02:49:23.373Z,1006.60
2018-10-03T02:50:23.350Z,1006.63
2018-10-03T02:51:23.328Z,1006.65
2018-10-03T02:52:23.310Z,1006.53
2018-10-03T02:53:23.291Z,1006.64
2018-10-03T02:54:23.269Z,1006.72
2018-10-03T02:55:23.254Z,1006.59
2018-10-03T02:56:23.226Z,1006.60
2018-10-03T02:57:23.208Z,1006.70
2018-10-03T02:58:23.186Z,1006.65
2018-10-03T02:59:23.167Z,1006.70
2018-10-03T03:00:23.154Z,1006.73
2018-10-03T03:01:23.126Z,1006.69
2018-10-03T03:02:23.105Z,1006.74
2018-10-03T03:03:23.086Z,1006.84
2018-10-03T03:04:23.062Z,1006.74
2018-10-03T03:05:23.042Z,1006.84
2018-10-03T03:06:23.024Z,1006.67
2018-10-03T03:07:23.003Z,1006.81
2018-10-03T03:08:23.102Z,1006.84
2018-10-03T03:09:22.964Z,1006.79
2018-10-03T03:10:22.944Z,1006.74
2018-10-03T03:11:22.922Z,1006.86
2018-10-03T03:12:22.900Z,1006.82
2018-10-03T03:13:22.876Z,1006.89
2018-10-03T03:14:22.857Z,1006.79
2018-10-03T03:15:22.836Z,1006.77
2018-10-03T03:16:22.861Z,1006.83
2018-10-03T03:17:22.799Z,1006.76
2018-10-03T03:18:22.777Z,1006.82
2018-10-03T03:19:22.756Z,1006.78
2018-10-03T03:20:22.732Z,1006.77
2018-10-03T03:21:22.720Z,1006.76
2018-10-03T03:22:22.692Z,1006.67
2018-10-03T03:23:22.674Z,1006.73
2018-10-03T03:24:22.652Z,1006.73
2018-10-03T03:25:22.632Z,1006.74
2018-10-03T03:26:22.612Z,1006.73
2018-10-03T03:27:22.587Z,1006.74
2018-10-03T03:28:22.566Z,1006.75
2018-10-03T03:29:22.548Z,1006.68
2018-10-03T03:30:22.534Z,1006.53
2018-10-03T03:31:22.510Z,1006.65
2018-10-03T03:32:22.492Z,1006.73
2018-10-03T03:33:22.467Z,1006.68
2018-10-03T03:34:22.446Z,1006.77
2018-10-03T03:35:22.425Z,1006.72
2018-10-03T03:36:22.404Z,1006.70
2018-10-03T03:37:22.384Z,1006.77
2018-10-03T03:38:22.366Z,1006.84
2018-10-03T03:39:22.342Z,1006.95
2018-10-03T03:40:22.321Z,1006.86
2018-10-03T03:41:22.298Z,1006.89
2018-10-03T03:42:22.287Z,1006.90
2018-10-03T03:43:22.260Z,1007.03
2018-10-03T03:44:22.242Z,1007.00
2018-10-03T03:45:22.211Z,1007.00
2018-10-03T03:46:22.199Z,1006.97
2018-10-03T03:47:22.185Z,1006.94
2018-10-03T03:48:22.161Z,1006.89
2018-10-03T03:49:22.142Z,1006.83
2018-10-03T03:50:22.136Z,1006.82
2018-10-03T03:51:22.096Z,1006.90
2018-10-03T03:52:22.088Z,1006.83
2018-10-03T03:53:22.059Z,1006.88
2018-10-03T03:54:22.041Z,1006.83
2018-10-03T03:55:22.012Z,1006.82
2018-10-03T03:56:21.996Z,1006.89
2018-10-03T03:57:21.980Z,1006.82
2018-10-03T03:58:21.953Z,1006.84
2018-10-03T03:59:21.938Z,1006.83
2018-10-03T04:00:21.908Z,1006.87
2018-10-03T04:01:21.892Z,1006.83
2018-10-03T04:02:21.871Z,1006.83
2018-10-03T04:03:21.856Z,1006.92
2018-10-03T04:04:21.832Z,1006.89
2018-10-03T04:05:21.817Z,1006.90
2018-10-03T04:06:21.792Z,1006.95
2018-10-03T04:07:21.770Z,1006.90
2018-10-03T04:08:21.750Z,1006.95
2018-10-03T04:09:21.730Z,1006.87
2018-10-03T04:10:21.713Z,1006.92
2018-10-03T04:11:21.686Z,1007.04
2018-10-03T04:12:21.667Z,1006.98
2018-10-03T04:13:21.643Z,1006.96
2018-10-03T04:14:21.624Z,1006.96
2018-10-03T04:15:21.609Z,1006.89
2018-10-03T04:16:21.580Z,1006.93
2018-10-03T04:17:21.562Z,1006.96
2018-10-03T04:18:21.550Z,1006.81
2018-10-03T04:19:21.520Z,1006.76
2018-10-03T04:20:21.498Z,1006.74
2018-10-03T04:21:21.482Z,1006.75
2018-10-03T04:22:21.462Z,1006.89
2018-10-03T04:23:21.443Z,1006.88
2018-10-03T04:24:21.420Z,1006.99
2018-10-03T04:25:21.400Z,1006.93
2018-10-03T04:26:21.378Z,1006.94
2018-10-03T04:27:21.360Z,1006.83
2018-10-03T04:28:21.340Z,1006.92
2018-10-03T04:29:21.321Z,1006.92
2018-10-03T04:30:21.296Z,1006.91
2018-10-03T04:31:21.275Z,1006.91
2018-10-03T04:32:21.264Z,1006.90
2018-10-03T04:33:21.237Z,1006.96
2018-10-03T04:34:21.218Z,1006.90
2018-10-03T04:35:21.198Z,1006.79
2018-10-03T04:36:21.170Z,1006.91
2018-10-03T04:37:21.154Z,1007.13
2018-10-03T04:38:21.131Z,1007.07
2018-10-03T04:39:21.113Z,1007.02
2018-10-03T04:40:21.093Z,1007.07
2018-10-03T04:41:21.069Z,1006.96
2018-10-03T04:42:21.100Z,1006.93
2018-10-03T04:43:21.031Z,1006.84
2018-10-03T04:44:21.011Z,1006.70
2018-10-03T04:45:20.992Z,1006.93
2018-10-03T04:46:20.968Z,1006.99
2018-10-03T04:47:20.949Z,1007.05
2018-10-03T04:48:20.926Z,1007.08
2018-10-03T04:49:20.912Z,1007.11
2018-10-03T04:50:20.886Z,1007.10
2018-10-03T04:51:20.871Z,1007.10
2018-10-03T04:52:20.851Z,1007.14
2018-10-03T04:53:20.825Z,1007.15
2018-10-03T04:54:20.805Z,1007.20
2018-10-03T04:55:20.782Z,1007.20
2018-10-03T04:56:20.767Z,1007.09
2018-10-03T04:57:20.749Z,1007.12
2018-10-03T04:58:20.726Z,1006.98
2018-10-03T04:59:20.705Z,1007.01
2018-10-03T05:00:20.689Z,1007.09
2018-10-03T05:01:20.667Z,1007.18
2018-10-03T05:02:20.640Z,1007.15
2018-10-03T05:03:20.621Z,1007.12
2018-10-03T05:04:20.601Z,1007.08
2018-10-03T05:05:20.583Z,1007.13
2018-10-03T05:06:20.561Z,1007.00
2018-10-03T05:07:20.542Z,1007.06
2018-10-03T05:08:20.526Z,1007.13
2018-10-03T05:09:20.498Z,1007.20
2018-10-03T05:10:20.479Z,1007.10
2018-10-03T05:11:20.485Z,1007.15
2018-10-03T05:12:20.440Z,1007.16
2018-10-03T05:13:20.416Z,1007.18
2018-10-03T05:14:20.396Z,1007.23
2018-10-03T05:15:20.379Z,1007.14
2018-10-03T05:16:20.357Z,1007.23
2018-10-03T05:17:20.335Z,1007.16
2018-10-03T05:18:20.316Z,1007.16
2018-10-03T05:19:20.300Z,1007.23
2018-10-03T05:20:20.272Z,1007.21
2018-10-03T05:21:20.252Z,1007.15
2018-10-03T05:22:20.233Z,1007.14
2018-10-03T05:23:20.212Z,1007.08
2018-10-03T05:24:20.196Z,1007.10
2018-10-03T05:25:20.171Z,1007.17
2018-10-03T05:26:20.153Z,1007.50
2018-10-03T05:27:20.134Z,1007.42
2018-10-03T05:28:20.111Z,1007.52
2018-10-03T05:29:20.090Z,1007.47
2018-10-03T05:30:20.079Z,1007.38
2018-10-03T05:31:20.057Z,1007.54
2018-10-03T05:32:20.036Z,1007.35
2018-10-03T05:33:20.042Z,1007.43
2018-10-03T05:34:19.991Z,1007.45
2018-10-03T05:35:19.971Z,1007.46
2018-10-03T05:36:19.947Z,1007.41
2018-10-03T05:37:19.925Z,1007.53
2018-10-03T05:38:19.910Z,1007.53
2018-10-03T05:39:19.889Z,1007.62
2018-10-03T05:40:19.865Z,1007.55
2018-10-03T05:41:19.849Z,1007.62
2018-10-03T05:42:19.829Z,1007.61
2018-10-03T05:43:19.805Z,1007.57
2018-10-03T05:44:19.782Z,1007.51
2018-10-03T05:45:19.764Z,1007.58
2018-10-03T05:46:19.741Z,1007.54
2018-10-03T05:47:19.725Z,1007.57
2018-10-03T05:48:19.747Z,1007.59
2018-10-03T05:49:19.681Z,1007.67
2018-10-03T05:50:19.660Z,1007.64
2018-10-03T05:51:19.647Z,1007.60
2018-10-03T05:52:19.624Z,1007.65
2018-10-03T05:53:19.601Z,1007.57
2018-10-03T05:54:19.576Z,1007.59
2018-10-03T05:55:19.555Z,1007.64
2018-10-03T05:56:19.541Z,1007.69
2018-10-03T05:57:19.524Z,1007.80
2018-10-03T05:58:19.489Z,1007.84
2018-10-03T05:59:19.474Z,1007.87
2018-10-03T06:00:19.455Z,1007.81
2018-10-03T06:01:19.436Z,1007.76
2018-10-03T06:02:19.415Z,1007.87
2018-10-03T06:03:19.394Z,1007.77
2018-10-03T06:04:19.375Z,1007.87
2018-10-03T06:05:19.355Z,1007.87
2018-10-03T06:06:19.331Z,1007.85
2018-10-03T06:07:19.312Z,1007.84
2018-10-03T06:08:19.290Z,1007.92
2018-10-03T06:09:19.269Z,1008.00
2018-10-03T06:10:19.247Z,1007.87
2018-10-03T06:11:19.231Z,1007.97
2018-10-03T06:12:19.210Z,1008.03
2018-10-03T06:13:19.191Z,1007.93
2018-10-03T06:14:19.175Z,1008.02
2018-10-03T06:15:19.143Z,1008.07
2018-10-03T06:16:19.120Z,1008.09
2018-10-03T06:17:19.103Z,1008.10
2018-10-03T06:18:19.083Z,1008.09
2018-10-03T06:19:19.063Z,1008.11
2018-10-03T06:20:19.045Z,1008.08
2018-10-03T06:21:19.021Z,1008.12
2018-10-03T06:22:19.001Z,1008.15
2018-10-03T06:23:18.979Z,1008.22
2018-10-03T06:24:18.960Z,1008.21
2018-10-03T06:25:18.936Z,1008.08
2018-10-03T06:26:19.247Z,1008.22
2018-10-03T06:27:18.899Z,1008.12
2018-10-03T06:28:18.901Z,1008.30
2018-10-03T06:29:18.858Z,1008.15
2018-10-03T06:30:18.833Z,1008.21
2018-10-03T06:31:18.816Z,1008.22
2018-10-03T06:32:18.797Z,1008.18
2018-10-03T06:33:18.803Z,1008.19
2018-10-03T06:34:18.753Z,1008.12
2018-10-03T06:35:18.728Z,1008.12
2018-10-03T06:36:18.711Z,1008.26
2018-10-03T06:37:18.694Z,1008.28
2018-10-03T06:38:18.670Z,1008.24
2018-10-03T06:39:18.680Z,1008.23
2018-10-03T06:40:18.692Z,1008.35
2018-10-03T06:41:18.606Z,1008.35
2018-10-03T06:42:18.597Z,1008.37
2018-10-03T06:43:18.567Z,1008.41
2018-10-03T06:44:18.547Z,1008.36
2018-10-03T06:45:18.525Z,1008.35
2018-10-03T06:46:18.510Z,1008.32
2018-10-03T06:47:18.487Z,1008.45
2018-10-03T06:48:18.468Z,1008.52
2018-10-03T06:49:18.453Z,1008.47
2018-10-03T06:50:18.432Z,1008.56
2018-10-03T06:51:18.404Z,1008.45
2018-10-03T06:52:18.382Z,1008.47
2018-10-03T06:53:18.361Z,1008.45
2018-10-03T06:54:18.345Z,1008.47
2018-10-03T06:55:18.322Z,1008.54
2018-10-03T06:56:18.315Z,1008.50
2018-10-03T06:57:18.280Z,1008.54
2018-10-03T06:58:18.264Z,1008.73
2018-10-03T06:59:18.240Z,1008.57
2018-10-03T07:00:18.226Z,1008.80
2018-10-03T07:01:18.198Z,1008.71
2018-10-03T07:02:18.174Z,1008.62
2018-10-03T07:03:18.160Z,1008.54
2018-10-03T07:04:18.141Z,1008.51
2018-10-03T07:05:18.117Z,1008.74
2018-10-03T07:06:18.100Z,1008.71
2018-10-03T07:07:18.078Z,1008.83
2018-10-03T07:08:18.058Z,1008.84
2018-10-03T07:09:18.039Z,1008.84
2018-10-03T07:10:18.020Z,1008.85
2018-10-03T07:11:17.996Z,1008.87
2018-10-03T07:12:17.976Z,1008.87
2018-10-03T07:13:17.954Z,1008.81
2018-10-03T07:14:17.935Z,1008.88
2018-10-03T07:15:17.919Z,1008.86
2018-10-03T07:16:17.898Z,1008.96
2018-10-03T07:17:17.870Z,1009.01
2018-10-03T07:18:17.856Z,1009.10
2018-10-03T07:19:17.839Z,1009.04
2018-10-03T07:20:17.932Z,1009.05
2018-10-03T07:21:17.791Z,1009.02
2018-10-03T07:22:17.773Z,1009.04
2018-10-03T07:23:17.753Z,1009.02
2018-10-03T07:24:17.731Z,1009.04
2018-10-03T07:25:17.711Z,1009.10
2018-10-03T07:26:17.741Z,1009.10
2018-10-03T07:27:17.675Z,1009.16
2018-10-03T07:28:17.659Z,1009.17
2018-10-03T07:29:17.633Z,1009.11
2018-10-03T07:30:17.616Z,1009.24
2018-10-03T07:31:17.590Z,1009.25
2018-10-03T07:32:17.578Z,1009.11
2018-10-03T07:33:17.553Z,1009.21
2018-10-03T07:34:17.528Z,1009.27
2018-10-03T07:35:17.514Z,1009.29
2018-10-03T07:36:17.493Z,1009.43
2018-10-03T07:37:17.474Z,1009.42
2018-10-03T07:38:17.453Z,1009.41
2018-10-03T07:39:17.483Z,1009.55
2018-10-03T07:40:17.411Z,1009.48
2018-10-03T07:41:17.408Z,1009.25
2018-10-03T07:42:17.370Z,1009.29
2018-10-03T07:43:17.351Z,1009.53
2018-10-03T07:44:17.336Z,1009.51
2018-10-03T07:45:17.310Z,1009.74
2018-10-03T07:46:17.289Z,1009.67
2018-10-03T07:47:17.270Z,1009.73
2018-10-03T07:48:17.248Z,1009.64
2018-10-03T07:49:17.228Z,1009.76
2018-10-03T07:50:17.210Z,1009.95
2018-10-03T07:51:17.188Z,1009.64
2018-10-03T07:52:17.166Z,1009.79
2018-10-03T07:53:17.153Z,1009.71
2018-10-03T07:54:17.127Z,1009.81
2018-10-03T07:55:17.107Z,1009.64
2018-10-03T07:56:17.184Z,1009.82
2018-10-03T07:57:17.108Z,1009.85
2018-10-03T07:58:17.053Z,1009.63
2018-10-03T07:59:17.029Z,1009.75
2018-10-03T08:00:17.007Z,1009.69
2018-10-03T08:01:16.994Z,1009.66
2018-10-03T08:02:16.972Z,1009.70
2018-10-03T08:03:16.948Z,1009.64
2018-10-03T08:04:16.927Z,1009.74
2018-10-03T08:05:16.916Z,1009.70
2018-10-03T08:06:16.887Z,1009.72
2018-10-03T08:07:16.869Z,1009.84
2018-10-03T08:08:16.856Z,1010.25
2018-10-03T08:09:16.835Z,1010.13
2018-10-03T08:10:16.815Z,1009.72
2018-10-03T08:11:16.788Z,1009.80
2018-10-03T08:12:16.771Z,1009.85
2018-10-03T08:13:16.757Z,1009.97
2018-10-03T08:14:16.730Z,1010.09
2018-10-03T08:15:16.718Z,1009.84
2018-10-03T08:16:16.697Z,1009.84
2018-10-03T08:17:16.690Z,1009.98
2018-10-03T08:18:16.658Z,1010.12
2018-10-03T08:19:16.636Z,1010.22
2018-10-03T08:20:16.620Z,1010.01
2018-10-03T08:21:16.599Z,1009.89
2018-10-03T08:22:16.584Z,1010.01
2018-10-03T08:23:16.558Z,1010.01
2018-10-03T08:24:16.538Z,1009.86
2018-10-03T08:25:16.520Z,1010.14
2018-10-03T08:26:16.520Z,1010.26
2018-10-03T08:27:16.485Z,1010.25
2018-10-03T08:28:16.470Z,1010.13
2018-10-03T08:29:16.441Z,1010.15
2018-10-03T08:30:16.428Z,1010.05
2018-10-03T08:31:16.410Z,1010.31
2018-10-03T08:32:16.425Z,1010.33
2018-10-03T08:33:16.417Z,1010.20
2018-10-03T08:34:16.351Z,1010.21
2018-10-03T08:35:16.340Z,1010.17
2018-10-03T08:36:16.313Z,1010.46
2018-10-03T08:37:16.296Z,1010.45
2018-10-03T08:38:16.279Z,1010.55
2018-10-03T08:39:16.258Z,1010.29
2018-10-03T08:40:16.242Z,1010.25
2018-10-03T08:41:16.231Z,1010.35
2018-10-03T08:42:16.197Z,1010.24
2018-10-03T08:43:16.187Z,1010.61
2018-10-03T08:44:16.164Z,1010.40
2018-10-03T08:45:16.144Z,1010.52
2018-10-03T08:46:16.130Z,1010.39
2018-10-03T08:47:16.114Z,1010.41
2018-10-03T08:48:16.095Z,1010.36
2018-10-03T08:49:16.075Z,1010.44
2018-10-03T08:50:16.055Z,1010.40
2018-10-03T08:51:16.033Z,1010.40
2018-10-03T08:52:16.017Z,1010.38
2018-10-03T08:53:15.995Z,1010.44
2018-10-03T08:54:15.980Z,1010.56
2018-10-03T08:55:15.965Z,1010.34
2018-10-03T08:56:15.953Z,1010.42
2018-10-03T08:57:15.929Z,1010.38
2018-10-03T08:58:15.993Z,1010.42
2018-10-03T08:59:15.891Z,1010.53
2018-10-03T09:00:15.873Z,1010.62
2018-10-03T09:01:15.861Z,1010.57
2018-10-03T09:02:15.834Z,1010.72
2018-10-03T09:03:15.816Z,1010.49
2018-10-03T09:04:15.806Z,1010.49
2018-10-03T09:05:15.775Z,1010.83
2018-10-03T09:06:15.761Z,1010.78
2018-10-03T09:07:15.746Z,1010.62
2018-10-03T09:08:15.735Z,1010.82
2018-10-03T09:09:15.707Z,1010.96
2018-10-03T09:10:15.691Z,1011.01
2018-10-03T09:11:15.670Z,1010.76
2018-10-03T09:12:15.662Z,1010.86
2018-10-03T09:13:15.632Z,1011.08
2018-10-03T09:14:15.614Z,1011.02
2018-10-03T09:15:15.603Z,1011.01
2018-10-03T09:16:15.586Z,1010.99
2018-10-03T09:17:15.562Z,1010.93
2018-10-03T09:18:15.543Z,1010.90
2018-10-03T09:19:15.524Z,1010.96
2018-10-03T09:20:15.505Z,1011.11
2018-10-03T09:21:15.561Z,1011.24
2018-10-03T09:22:15.468Z,1011.08
2018-10-03T09:23:15.454Z,1010.91
2018-10-03T09:24:15.438Z,1010.90
2018-10-03T09:25:15.420Z,1011.10
2018-10-03T09:26:15.404Z,1011.03
2018-10-03T09:27:15.380Z,1011.16
2018-10-03T09:28:15.426Z,1011.26
2018-10-03T09:29:15.347Z,1011.22
2018-10-03T09:30:15.324Z,1011.29
2018-10-03T09:31:15.316Z,1011.15
2018-10-03T09:32:15.292Z,1011.29
2018-10-03T09:33:15.282Z,1011.40
2018-10-03T09:34:15.264Z,1011.38
2018-10-03T09:35:15.240Z,1011.31
2018-10-03T09:36:15.227Z,1011.24
2018-10-03T09:37:15.204Z,1011.45
2018-10-03T09:38:15.188Z,1011.41
2018-10-03T09:39:15.172Z,1011.49
2018-10-03T09:40:15.159Z,1011.61
2018-10-03T09:41:15.146Z,1011.78
2018-10-03T09:42:15.122Z,1011.59
2018-10-03T09:43:15.102Z,1011.69
2018-10-03T09:44:15.091Z,1011.48
2018-10-03T09:45:15.072Z,1011.42
2018-10-03T09:46:15.056Z,1011.88
2018-10-03T09:47:15.040Z,1011.57
2018-10-03T09:48:15.022Z,1011.56
2018-10-03T09:49:15.003Z,1011.48
2018-10-03T09:50:14.989Z,1011.47
2018-10-03T09:51:14.973Z,1011.80
2018-10-03T09:52:14.958Z,1011.75
2018-10-03T09:53:14.944Z,1011.94
2018-10-03T09:54:14.935Z,1011.86
2018-10-03T09:55:14.923Z,1011.91
2018-10-03T09:56:14.895Z,1011.84
2018-10-03T09:57:14.878Z,1011.79
2018-10-03T09:58:14.864Z,1011.70
2018-10-03T09:59:14.854Z,1011.67
2018-10-03T10:00:14.906Z,1011.68
2018-10-03T10:01:14.818Z,1011.69
2018-10-03T10:02:14.806Z,1011.73
2018-10-03T10:03:14.786Z,1011.75
2018-10-03T10:04:14.770Z,1011.83
2018-10-03T10:05:14.756Z,1011.84
2018-10-03T10:06:14.738Z,1011.87
2018-10-03T10:07:14.728Z,1011.89
2018-10-03T10:08:14.719Z,1011.88
2018-10-03T10:09:14.694Z,1011.89
2018-10-03T10:10:14.719Z,1011.98
2018-10-03T10:11:14.763Z,1012.03
2018-10-03T10:12:14.643Z,1012.09
2018-10-03T10:13:14.646Z,1012.03
2018-10-03T10:14:14.624Z,1012.12
2018-10-03T10:15:14.598Z,1012.02
2018-10-03T10:16:14.583Z,1012.13
2018-10-03T10:17:14.567Z,1012.41
2018-10-03T10:18:14.547Z,1012.47
2018-10-03T10:19:14.543Z,1012.41
2018-10-03T10:20:14.521Z,1012.27
2018-10-03T10:21:14.500Z,1012.03
2018-10-03T10:22:14.491Z,1012.34
2018-10-03T10:23:14.469Z,1012.31
2018-10-03T10:24:14.461Z,1012.32
2018-10-03T10:25:14.448Z,1012.25
2018-10-03T10:26:14.428Z,1012.41
2018-10-03T10:27:14.413Z,1012.48
2018-10-03T10:28:14.396Z,1012.38
2018-10-03T10:29:14.381Z,1012.46
2018-10-03T10:30:14.373Z,1012.18
2018-10-03T10:31:14.361Z,1012.19
2018-10-03T10:32:14.452Z,1012.29
2018-10-03T10:33:14.432Z,1012.39
2018-10-03T10:34:14.319Z,1012.25
2018-10-03T10:35:14.301Z,1012.34
2018-10-03T10:36:14.289Z,1012.39
2018-10-03T10:37:14.282Z,1012.33
2018-10-03T10:38:14.261Z,1012.23
2018-10-03T10:39:14.249Z,1012.21
2018-10-03T10:40:14.400Z,1012.28
2018-10-03T10:41:14.329Z,1012.46
2018-10-03T10:42:14.211Z,1012.40
2018-10-03T10:43:14.212Z,1012.48
2018-10-03T10:44:14.184Z,1012.57
2018-10-03T10:45:14.168Z,1012.88
2018-10-03T10:46:14.148Z,1013.68
2018-10-03T10:47:14.133Z,1012.64
2018-10-03T10:48:14.128Z,1012.45
2018-10-03T10:49:14.108Z,1012.32
2018-10-03T10:50:14.135Z,1012.27
2018-10-03T10:51:14.078Z,1012.31
2018-10-03T10:52:14.063Z,1012.25
2018-10-03T10:53:14.051Z,1012.28
2018-10-03T10:54:14.036Z,1012.33
2018-10-03T10:55:14.023Z,1012.49
2018-10-03T10:56:14.014Z,1012.60
2018-10-03T10:57:14.001Z,1012.58
2018-10-03T10:58:13.987Z,1012.66
2018-10-03T10:59:13.969Z,1012.80
2018-10-03T11:00:13.954Z,1012.63
2018-10-03T11:01:13.941Z,1012.65
2018-10-03T11:02:13.936Z,1012.70
2018-10-03T11:03:13.909Z,1012.65
2018-10-03T11:04:13.895Z,1012.66
2018-10-03T11:05:13.879Z,1012.58
2018-10-03T11:06:13.883Z,1012.65
2018-10-03T11:07:13.851Z,1012.66
2018-10-03T11:08:13.837Z,1012.74
2018-10-03T11:09:13.824Z,1012.76
2018-10-03T11:10:13.804Z,1012.84
2018-10-03T11:11:13.787Z,1012.85
2018-10-03T11:12:13.773Z,1012.81
2018-10-03T11:13:13.759Z,1012.80
2018-10-03T11:14:13.744Z,1012.74
2018-10-03T11:15:13.729Z,1012.85
2018-10-03T11:16:13.718Z,1013.90
2018-10-03T11:17:13.699Z,1013.96
2018-10-03T11:18:13.682Z,1013.98
2018-10-03T11:19:13.670Z,1013.94
2018-10-03T11:20:13.670Z,1013.86
2018-10-03T11:21:13.635Z,1013.92
2018-10-03T11:22:13.621Z,1013.87
2018-10-03T11:23:13.613Z,1013.92
2018-10-03T11:24:13.780Z,1013.99
2018-10-03T11:25:13.580Z,1013.95
2018-10-03T11:26:13.571Z,1013.91
2018-10-03T11:27:13.559Z,1013.96
2018-10-03T11:28:13.538Z,1013.99
2018-10-03T11:29:13.531Z,1014.03
2018-10-03T11:30:13.513Z,1013.63
2018-10-03T11:31:13.501Z,1013.43
2018-10-03T11:32:13.673Z,1013.16
2018-10-03T11:33:13.477Z,1013.25
2018-10-03T11:34:13.869Z,1013.78
2018-10-03T11:35:13.452Z,1013.97
2018-10-03T11:36:13.441Z,1013.94
2018-10-03T11:37:13.434Z,1013.95
2018-10-03T11:38:13.471Z,1013.91
2018-10-03T11:39:13.409Z,1013.92
2018-10-03T11:40:13.395Z,1013.90
2018-10-03T11:41:13.388Z,1014.02
2018-10-03T11:42:13.376Z,1014.00
2018-10-03T11:43:13.365Z,1013.90
2018-10-03T11:44:13.355Z,1014.18
2018-10-03T11:45:13.347Z,1014.00
2018-10-03T11:46:13.332Z,1014.05
2018-10-03T11:47:13.331Z,1014.00
2018-10-03T11:48:13.327Z,1014.00
2018-10-03T11:49:13.313Z,1013.95
2018-10-03T11:50:13.902Z,1013.98
2018-10-03T11:51:13.293Z,1014.04
2018-10-03T11:52:13.281Z,1014.06
2018-10-03T11:53:13.282Z,1014.10
2018-10-03T11:54:13.263Z,1014.17
2018-10-03T11:55:13.257Z,1013.47
2018-10-03T11:56:13.259Z,1013.90
2018-10-03T11:57:13.278Z,1013.81
2018-10-03T11:58:13.233Z,1014.13
2018-10-03T11:59:13.225Z,1014.28
2018-10-03T12:00:13.215Z,1014.22
2018-10-03T12:01:13.207Z,1013.94
2018-10-03T12:02:13.233Z,1013.61
2018-10-03T12:03:13.214Z,1013.40
2018-10-03T12:04:13.185Z,1013.40
2018-10-03T12:05:13.191Z,1013.44